createdAt,value
2019-01-17T00:01:47.519Z,7.60
2019-01-17T00:04:55.481Z,7.60
2019-01-17T00:08:11.679Z,7.60
2019-01-17T00:11:18.582Z,7.60
2019-01-17T00:14:35.069Z,7.40
2019-01-17T00:17:54.402Z,7.30
2019-01-17T00:21:21.324Z,7.20
2019-01-17T00:24:32.906Z,7.10
2019-01-17T00:27:41.595Z,7.10
2019-01-17T00:30:54.675Z,7.00
2019-01-17T00:34:05.191Z,6.90
2019-01-17T00:37:23.011Z,6.90
2019-01-17T00:40:24.464Z,6.90
2019-01-17T00:43:35.813Z,6.80
2019-01-17T00:46:42.321Z,6.80
2019-01-17T00:49:44.592Z,6.80
2019-01-17T00:53:01.919Z,6.80
2019-01-17T00:56:16.492Z,6.80
2019-01-17T00:59:39.343Z,6.80
2019-01-17T01:02:40.192Z,6.80
2019-01-17T01:05:38.232Z,6.80
2019-01-17T01:08:49.472Z,6.90
2019-01-17T01:11:55.753Z,6.80
2019-01-17T01:15:09.810Z,6.80
2019-01-17T01:18:24.399Z,6.80
2019-01-17T01:21:31.259Z,6.90
2019-01-17T01:24:48.850Z,6.90
2019-01-17T01:27:52.232Z,6.90
2019-01-17T01:31:09.394Z,7.00
2019-01-17T01:34:16.143Z,7.00
2019-01-17T01:37:42.879Z,7.00
2019-01-17T01:41:01.264Z,7.00
2019-01-17T01:44:06.094Z,7.00
2019-01-17T01:47:13.578Z,7.10
2019-01-17T01:50:26.318Z,7.10
2019-01-17T01:53:15.501Z,7.20
2019-01-17T01:56:07.862Z,7.10
2019-01-17T01:58:57.172Z,7.10
2019-01-17T02:01:46.480Z,7.10
2019-01-17T02:04:35.895Z,7.10
2019-01-17T02:07:25.109Z,7.20
2019-01-17T02:10:14.599Z,7.20
2019-01-17T02:13:04.059Z,7.20
2019-01-17T02:15:53.564Z,7.10
2019-01-17T02:18:42.562Z,7.10
2019-01-17T02:21:31.951Z,7.10
2019-01-17T02:24:21.160Z,7.10
2019-01-17T02:27:10.326Z,7.10
2019-01-17T02:29:59.563Z,7.20
2019-01-17T02:32:49.079Z,7.20
2019-01-17T02:35:38.694Z,7.20
2019-01-17T02:38:27.958Z,7.20
2019-01-17T02:41:17.495Z,7.20
2019-01-17T02:44:06.829Z,7.20
2019-01-17T02:46:56.020Z,7.20
2019-01-17T02:49:45.292Z,7.20
2019-01-17T02:52:34.509Z,7.30
2019-01-17T02:55:23.875Z,7.20
2019-01-17T02:58:13.235Z,7.20
2019-01-17T03:01:02.389Z,7.20
2019-01-17T03:03:51.339Z,7.20
2019-01-17T03:06:40.591Z,7.20
2019-01-17T03:09:29.863Z,7.20
2019-01-17T03:12:18.951Z,7.10
2019-01-17T03:15:08.451Z,7.20
2019-01-17T03:17:57.954Z,7.20
2019-01-17T03:20:47.441Z,7.10
2019-01-17T03:23:36.859Z,7.10
2019-01-17T03:26:26.155Z,7.20
2019-01-17T03:29:15.504Z,7.20
2019-01-17T03:32:04.781Z,7.10
2019-01-17T03:34:53.960Z,7.20
2019-01-17T03:37:43.331Z,7.10
2019-01-17T03:40:32.723Z,7.10
2019-01-17T03:43:22.361Z,7.10
2019-01-17T03:46:14.633Z,7.10
2019-01-17T03:49:03.918Z,7.00
2019-01-17T03:51:53.281Z,7.00
2019-01-17T03:54:42.502Z,7.00
2019-01-17T03:57:31.693Z,7.00
2019-01-17T04:00:21.653Z,7.00
2019-01-17T04:03:11.112Z,7.00
2019-01-17T04:06:00.645Z,6.90
2019-01-17T04:08:50.840Z,6.90
2019-01-17T04:11:40.276Z,6.90
2019-01-17T04:14:29.452Z,6.80
2019-01-17T04:17:18.714Z,6.80
2019-01-17T04:20:11.015Z,6.80
2019-01-17T04:23:00.273Z,6.70
2019-01-17T04:25:50.357Z,6.70
2019-01-17T04:28:39.902Z,6.80
2019-01-17T04:31:29.498Z,6.80
2019-01-17T04:34:18.839Z,6.70
2019-01-17T04:37:07.993Z,6.70
2019-01-17T04:39:57.242Z,6.70
2019-01-17T04:42:46.480Z,6.80
2019-01-17T04:45:35.640Z,6.90
2019-01-17T04:48:24.929Z,6.90
2019-01-17T04:51:14.413Z,6.90
2019-01-17T04:54:03.559Z,6.90
2019-01-17T04:56:52.852Z,7.00
2019-01-17T04:59:42.059Z,7.00
2019-01-17T05:02:31.332Z,7.00
2019-01-17T05:05:20.594Z,7.00
2019-01-17T05:08:10.476Z,7.00
2019-01-17T05:11:00.023Z,7.00
2019-01-17T05:13:49.259Z,7.00
2019-01-17T05:16:38.459Z,7.00
2019-01-17T05:19:27.642Z,7.00
2019-01-17T05:22:16.899Z,7.00
2019-01-17T05:25:12.394Z,6.90
2019-01-17T05:27:58.119Z,6.90
2019-01-17T05:30:47.181Z,6.90
2019-01-17T05:33:36.379Z,6.90
2019-01-17T05:36:25.620Z,6.80
2019-01-17T05:39:14.893Z,6.80
2019-01-17T05:42:04.209Z,6.80
2019-01-17T05:44:53.530Z,6.80
2019-01-17T05:47:43.075Z,6.80
2019-01-17T05:50:32.381Z,6.80
2019-01-17T05:53:21.648Z,6.80
2019-01-17T05:56:13.958Z,6.90
2019-01-17T05:59:03.199Z,7.00
2019-01-17T06:01:52.418Z,7.00
2019-01-17T06:04:41.769Z,7.10
2019-01-17T06:07:31.015Z,7.10
2019-01-17T06:10:20.214Z,7.20
2019-01-17T06:13:09.903Z,7.30
2019-01-17T06:15:59.472Z,7.30
2019-01-17T06:18:49.019Z,7.30
2019-01-17T06:21:39.238Z,7.40
2019-01-17T06:24:28.608Z,7.40
2019-01-17T06:27:18.069Z,7.30
2019-01-17T06:30:09.092Z,7.30
2019-01-17T06:32:58.278Z,7.40
2019-01-17T06:35:47.478Z,7.40
2019-01-17T06:38:37.048Z,7.40
2019-01-17T06:41:26.496Z,7.40
2019-01-17T06:44:20.293Z,7.40
2019-01-17T06:47:06.780Z,7.40
2019-01-17T06:49:55.941Z,7.50
2019-01-17T06:52:45.250Z,7.50
2019-01-17T06:55:34.743Z,7.50
2019-01-17T06:58:23.951Z,7.50
2019-01-17T07:01:13.578Z,7.40
2019-01-17T07:04:02.873Z,7.40
2019-01-17T07:06:52.410Z,7.40
2019-01-17T07:09:41.730Z,7.40
2019-01-17T07:12:30.988Z,7.50
2019-01-17T07:15:20.321Z,7.50
2019-01-17T07:18:09.684Z,7.50
2019-01-17T07:20:59.030Z,7.40
2019-01-17T07:23:48.205Z,7.30
2019-01-17T07:26:37.392Z,7.30
2019-01-17T07:29:26.601Z,7.20
2019-01-17T07:32:15.788Z,7.20
2019-01-17T07:35:05.268Z,7.20
2019-01-17T07:37:54.328Z,7.20
2019-01-17T07:40:43.560Z,7.20
2019-01-17T07:43:32.781Z,7.20
2019-01-17T07:46:22.041Z,7.20
2019-01-17T07:49:11.268Z,7.10
2019-01-17T07:52:00.631Z,7.00
2019-01-17T07:54:50.250Z,7.00
2019-01-17T07:57:39.501Z,7.00
2019-01-17T08:00:28.677Z,6.90
2019-01-17T08:03:17.888Z,6.90
2019-01-17T08:06:07.179Z,6.90
2019-01-17T08:08:56.660Z,7.00
2019-01-17T08:11:45.898Z,7.00
2019-01-17T08:14:35.068Z,7.00
2019-01-17T08:17:24.611Z,7.00
2019-01-17T08:20:16.908Z,7.00
2019-01-17T08:23:06.238Z,7.00
2019-01-17T08:25:55.461Z,7.10
2019-01-17T08:28:44.788Z,7.10
2019-01-17T08:31:34.121Z,7.10
2019-01-17T08:34:28.273Z,7.10
2019-01-17T08:37:14.178Z,7.10
2019-01-17T08:40:03.398Z,7.20
2019-01-17T08:42:52.391Z,7.20
2019-01-17T08:45:42.430Z,7.20
2019-01-17T08:48:31.978Z,7.20
2019-01-17T08:51:21.309Z,7.20
2019-01-17T08:54:10.828Z,7.20
2019-01-17T08:57:00.131Z,7.20
2019-01-17T08:59:49.377Z,7.20
2019-01-17T09:02:38.630Z,7.10
2019-01-17T09:05:27.962Z,7.20
2019-01-17T09:08:17.351Z,7.20
2019-01-17T09:11:10.119Z,7.20
2019-01-17T09:14:00.123Z,7.10
2019-01-17T09:16:49.563Z,7.10
2019-01-17T09:19:38.968Z,7.10
2019-01-17T09:22:28.949Z,7.10
2019-01-17T09:25:19.529Z,7.00
2019-01-17T09:28:08.868Z,7.10
2019-01-17T09:30:58.812Z,7.10
2019-01-17T09:33:48.464Z,7.10
2019-01-17T09:36:38.103Z,7.10
2019-01-17T09:39:27.979Z,7.20
2019-01-17T09:42:17.524Z,7.20
2019-01-17T09:45:08.612Z,7.20
2019-01-17T09:48:02.091Z,7.20
2019-01-17T09:50:51.969Z,7.20
2019-01-17T09:53:41.270Z,7.20
2019-01-17T09:56:30.551Z,7.20
2019-01-17T09:59:19.971Z,7.20
2019-01-17T10:02:09.220Z,7.20
2019-01-17T10:04:58.412Z,7.30
2019-01-17T10:07:47.611Z,7.30
2019-01-17T10:10:37.063Z,7.40
2019-01-17T10:13:31.914Z,7.30
2019-01-17T10:17:14.970Z,7.30
2019-01-17T10:20:21.501Z,7.30
2019-01-17T10:23:48.088Z,7.30
2019-01-17T10:26:56.812Z,7.20
2019-01-17T10:30:18.191Z,7.20
2019-01-17T10:33:24.999Z,7.30
2019-01-17T10:37:07.211Z,7.20
2019-01-17T10:40:35.911Z,7.30
2019-01-17T10:44:26.761Z,7.30
2019-01-17T10:48:07.448Z,7.30
2019-01-17T10:51:49.463Z,7.40
2019-01-17T10:55:05.302Z,7.30
2019-01-17T10:58:31.961Z,7.40
2019-01-17T11:01:34.458Z,7.40
2019-01-17T11:04:57.348Z,7.50
2019-01-17T11:08:36.751Z,7.60
2019-01-17T11:11:59.292Z,7.60
2019-01-17T11:15:03.800Z,7.70
2019-01-17T11:18:19.750Z,7.90
2019-01-17T11:21:44.400Z,7.90
2019-01-17T11:25:10.103Z,8.00
2019-01-17T11:28:37.841Z,7.90
2019-01-17T11:31:37.032Z,7.80
2019-01-17T11:35:22.461Z,7.90
2019-01-17T11:38:54.806Z,7.90
2019-01-17T11:42:19.111Z,7.90
2019-01-17T11:45:34.431Z,7.90
2019-01-17T11:48:53.117Z,7.80
2019-01-17T11:52:25.993Z,7.70
2019-01-17T11:55:35.678Z,7.70
2019-01-17T11:58:59.794Z,7.70
2019-01-17T12:02:40.781Z,7.70
2019-01-17T12:05:30.079Z,7.70
2019-01-17T12:08:19.292Z,7.70
2019-01-17T12:11:08.810Z,7.70
2019-01-17T12:13:58.179Z,7.70
2019-01-17T12:16:47.239Z,7.60
2019-01-17T12:19:36.464Z,7.60
2019-01-17T12:22:25.701Z,7.60
2019-01-17T12:25:14.881Z,7.50
2019-01-17T12:28:03.819Z,7.50
2019-01-17T12:30:53.222Z,7.60
2019-01-17T12:33:42.567Z,7.50
2019-01-17T12:36:32.243Z,7.60
2019-01-17T12:39:21.471Z,7.60
2019-01-17T12:42:10.682Z,7.50
2019-01-17T12:44:59.916Z,7.50
2019-01-17T12:47:49.178Z,7.50
2019-01-17T12:50:38.532Z,7.50
2019-01-17T12:53:27.688Z,7.50
2019-01-17T12:56:17.173Z,7.40
2019-01-17T12:59:06.380Z,7.30
2019-01-17T13:01:55.618Z,7.30
2019-01-17T13:04:44.889Z,7.30
2019-01-17T13:07:34.269Z,7.30
2019-01-17T13:10:23.462Z,7.20
2019-01-17T13:13:12.614Z,7.20
2019-01-17T13:16:01.809Z,7.20
2019-01-17T13:18:51.080Z,7.20
2019-01-17T13:21:40.471Z,7.20
2019-01-17T13:24:29.799Z,7.10
2019-01-17T13:27:18.981Z,7.10
2019-01-17T13:30:13.141Z,7.10
2019-01-17T13:33:02.399Z,7.10
2019-01-17T13:35:51.838Z,7.00
2019-01-17T13:38:41.329Z,7.10
2019-01-17T13:41:30.571Z,7.10
2019-01-17T13:44:19.811Z,7.20
2019-01-17T13:47:09.158Z,7.10
2019-01-17T13:49:58.349Z,7.10
2019-01-17T13:52:47.668Z,7.20
2019-01-17T13:55:37.171Z,7.10
2019-01-17T13:58:26.202Z,7.10
2019-01-17T14:01:15.551Z,7.10
2019-01-17T14:04:05.007Z,7.10
2019-01-17T14:06:54.211Z,6.90
2019-01-17T14:09:43.483Z,6.80
2019-01-17T14:12:32.958Z,6.70
2019-01-17T14:15:25.143Z,6.70
2019-01-17T14:18:14.409Z,6.80
2019-01-17T14:21:03.622Z,6.80
2019-01-17T14:23:53.330Z,6.80
2019-01-17T14:26:42.572Z,6.80
2019-01-17T14:29:31.789Z,6.80
2019-01-17T14:32:20.991Z,6.80
2019-01-17T14:35:10.520Z,6.80
2019-01-17T14:37:59.979Z,6.80
2019-01-17T14:40:49.598Z,6.80
2019-01-17T14:43:38.893Z,6.80
2019-01-17T14:46:27.944Z,6.80
2019-01-17T14:49:17.208Z,6.80
2019-01-17T14:52:06.261Z,6.80
2019-01-17T14:54:55.497Z,6.80
2019-01-17T14:57:45.151Z,6.70
2019-01-17T15:00:35.233Z,6.70
2019-01-17T15:03:24.442Z,6.80
2019-01-17T15:06:13.838Z,6.70
2019-01-17T15:09:05.481Z,6.70
2019-01-17T15:11:56.299Z,6.70
2019-01-17T15:14:46.199Z,6.60
2019-01-17T15:17:36.005Z,6.60
2019-01-17T15:20:25.859Z,6.40
2019-01-17T15:23:15.948Z,6.20
2019-01-17T15:26:06.189Z,6.00
2019-01-17T15:28:55.933Z,5.80
2019-01-17T15:31:45.812Z,5.80
2019-01-17T15:34:35.693Z,5.70
2019-01-17T15:37:26.282Z,5.80
2019-01-17T15:40:22.730Z,5.80
2019-01-17T15:43:13.000Z,5.70
2019-01-17T15:46:04.208Z,5.70
2019-01-17T15:48:54.653Z,5.60
2019-01-17T15:51:50.351Z,5.70
2019-01-17T15:54:43.170Z,5.60
2019-01-17T15:57:34.794Z,5.60
2019-01-17T16:00:34.437Z,5.60
2019-01-17T16:03:26.764Z,5.50
2019-01-17T16:06:20.404Z,5.50
2019-01-17T16:09:13.020Z,5.60
2019-01-17T16:12:06.945Z,5.60
2019-01-17T16:14:58.270Z,5.60
2019-01-17T16:17:50.321Z,5.60
2019-01-17T16:20:42.435Z,5.60
2019-01-17T16:23:32.427Z,5.50
2019-01-17T16:26:22.621Z,5.60
2019-01-17T16:29:16.072Z,5.60
2019-01-17T16:32:07.153Z,5.50
2019-01-17T16:34:57.438Z,5.50
2019-01-17T16:37:48.291Z,5.50
2019-01-17T16:40:38.177Z,5.60
2019-01-17T16:43:32.993Z,5.50
2019-01-17T16:46:23.090Z,5.60
2019-01-17T16:49:13.351Z,5.60
2019-01-17T16:52:03.108Z,5.60
2019-01-17T16:54:53.280Z,5.60
2019-01-17T16:57:48.962Z,5.60
2019-01-17T17:00:42.511Z,5.60
2019-01-17T17:03:32.862Z,5.60
2019-01-17T17:06:25.118Z,5.60
2019-01-17T17:09:17.003Z,5.50
2019-01-17T17:12:08.730Z,5.60
2019-01-17T17:14:59.181Z,5.40
2019-01-17T17:17:50.379Z,5.20
2019-01-17T17:20:39.411Z,4.90
2019-01-17T17:23:29.070Z,4.70
2019-01-17T17:26:18.913Z,4.60
2019-01-17T17:29:09.051Z,4.50
2019-01-17T17:31:58.922Z,4.40
2019-01-17T17:34:48.372Z,4.20
2019-01-17T17:37:38.190Z,4.10
2019-01-17T17:40:31.811Z,4.00
2019-01-17T17:43:21.340Z,3.90
2019-01-17T17:46:10.637Z,3.90
2019-01-17T17:49:05.279Z,3.80
2019-01-17T17:51:55.727Z,3.80
2019-01-17T17:54:45.452Z,3.70
2019-01-17T17:57:35.817Z,3.70
2019-01-17T18:00:54.188Z,3.70
2019-01-17T18:03:43.507Z,3.70
2019-01-17T18:06:33.277Z,3.70
2019-01-17T18:09:25.002Z,3.80
2019-01-17T18:12:15.459Z,3.80
2019-01-17T18:15:06.905Z,3.70
2019-01-17T18:17:58.662Z,3.80
2019-01-17T18:20:51.250Z,3.70
2019-01-17T18:23:40.870Z,3.70
2019-01-17T18:26:30.630Z,3.70
2019-01-17T18:29:20.427Z,3.70
2019-01-17T18:32:10.697Z,3.80
2019-01-17T18:35:01.695Z,3.80
2019-01-17T18:37:52.971Z,3.80
2019-01-17T18:40:44.430Z,3.70
2019-01-17T18:43:41.421Z,3.70
2019-01-17T18:46:26.571Z,3.60
2019-01-17T18:49:16.518Z,3.50
2019-01-17T18:52:06.431Z,3.50
2019-01-17T18:55:01.024Z,3.40
2019-01-17T18:57:51.240Z,3.40
2019-01-17T19:00:41.258Z,3.50
2019-01-17T19:03:30.501Z,3.40
2019-01-17T19:06:20.067Z,3.40
2019-01-17T19:09:10.051Z,3.40
2019-01-17T19:11:59.743Z,3.40
2019-01-17T19:14:49.803Z,3.40
2019-01-17T19:17:39.330Z,3.50
2019-01-17T19:20:29.396Z,3.30
2019-01-17T19:23:22.470Z,3.30
2019-01-17T19:26:13.054Z,3.40
2019-01-17T19:29:02.280Z,3.30
2019-01-17T19:31:52.360Z,3.20
2019-01-17T19:34:44.622Z,3.20
2019-01-17T19:37:35.231Z,3.00
2019-01-17T19:40:26.839Z,2.90
2019-01-17T19:43:17.257Z,3.00
2019-01-17T19:46:07.492Z,2.90
2019-01-17T19:48:57.778Z,2.90
2019-01-17T19:51:49.801Z,2.90
2019-01-17T19:54:39.349Z,2.90
2019-01-17T19:57:28.911Z,2.90
2019-01-17T20:00:19.030Z,2.90
2019-01-17T20:03:08.901Z,3.00
2019-01-17T20:05:58.018Z,3.00
2019-01-17T20:08:47.621Z,3.00
2019-01-17T20:11:45.034Z,3.00
2019-01-17T20:14:37.318Z,3.00
2019-01-17T20:17:26.508Z,3.10
2019-01-17T20:20:20.302Z,3.10
2019-01-17T20:23:09.531Z,3.10
2019-01-17T20:25:58.471Z,3.10
2019-01-17T20:28:48.479Z,3.10
2019-01-17T20:31:39.311Z,3.10
2019-01-17T20:34:28.558Z,3.20
2019-01-17T20:37:17.962Z,3.20
2019-01-17T20:40:08.391Z,3.20
2019-01-17T20:42:58.519Z,3.30
2019-01-17T20:45:47.741Z,3.20
2019-01-17T20:48:37.032Z,3.20
2019-01-17T20:51:26.282Z,3.20
2019-01-17T20:54:15.859Z,3.20
2019-01-17T20:57:07.135Z,3.20
2019-01-17T20:59:57.371Z,3.20
2019-01-17T21:02:47.735Z,3.20
2019-01-17T21:05:37.171Z,3.30
2019-01-17T21:08:26.441Z,3.30
2019-01-17T21:11:15.562Z,3.30
2019-01-17T21:14:05.152Z,3.30
2019-01-17T21:16:54.883Z,3.30
2019-01-17T21:19:44.189Z,3.30
2019-01-17T21:22:33.462Z,3.20
2019-01-17T21:25:23.334Z,3.20
2019-01-17T21:28:16.274Z,3.20
2019-01-17T21:31:05.965Z,3.20
2019-01-17T21:33:55.837Z,3.20
2019-01-17T21:36:45.011Z,3.20
2019-01-17T21:39:34.199Z,3.10
2019-01-17T21:42:24.128Z,3.10
2019-01-17T21:45:15.969Z,3.10
2019-01-17T21:48:05.801Z,3.10
2019-01-17T21:50:55.949Z,3.10
2019-01-17T21:53:45.959Z,3.00
2019-01-17T21:56:36.290Z,3.00
2019-01-17T21:59:26.196Z,2.90
2019-01-17T22:02:15.893Z,2.90
2019-01-17T22:05:06.669Z,2.90
2019-01-17T22:07:58.087Z,2.80
2019-01-17T22:10:47.898Z,2.80
2019-01-17T22:13:37.843Z,2.80
2019-01-17T22:16:29.005Z,2.70
2019-01-17T22:19:18.870Z,2.80
2019-01-17T22:22:07.901Z,2.70
2019-01-17T22:24:56.809Z,2.80
2019-01-17T22:27:47.435Z,2.70
2019-01-17T22:30:37.453Z,2.70
2019-01-17T22:33:31.314Z,2.60
2019-01-17T22:36:21.167Z,2.60
2019-01-17T22:39:10.720Z,2.60
2019-01-17T22:41:59.910Z,2.60
2019-01-17T22:44:53.051Z,2.60
2019-01-17T22:47:40.459Z,2.60
2019-01-17T22:50:29.639Z,2.70
2019-01-17T22:53:18.881Z,2.70
2019-01-17T22:56:08.199Z,2.70
2019-01-17T22:58:57.550Z,2.60
2019-01-17T23:01:47.499Z,2.70
2019-01-17T23:04:36.776Z,2.70
2019-01-17T23:07:26.857Z,2.70
2019-01-17T23:10:17.315Z,2.70
2019-01-17T23:13:06.878Z,2.80
2019-01-17T23:15:57.138Z,2.70
2019-01-17T23:18:46.941Z,2.70
2019-01-17T23:21:36.905Z,2.70
2019-01-17T23:24:26.142Z,2.60
2019-01-17T23:27:15.160Z,2.60
2019-01-17T23:30:07.052Z,2.50
2019-01-17T23:32:58.204Z,2.40
2019-01-17T23:35:47.223Z,2.30
2019-01-17T23:38:38.289Z,2.40
2019-01-17T23:41:28.470Z,2.30
2019-01-17T23:44:19.679Z,2.40
2019-01-17T23:47:09.635Z,2.30
2019-01-17T23:49:59.964Z,2.30
2019-01-17T23:52:50.078Z,2.30
2019-01-17T23:55:42.407Z,2.30
2019-01-17T23:58:32.681Z,2.20
